sensor_id;sensor_type;location;lat;lon;timestamp;pressure;altitude;pressure_sealevel;temperature;humidity
28428;BME280;15662;49.128;8.520;2023-07-24T00:00:15;99630.72;;;26.52;39.65
28428;BME280;15662;49.128;8.520;2023-07-24T00:02:43;99624.59;;;26.50;40.05
28428;BME280;15662;49.128;8.520;2023-07-24T00:05:12;99619.50;;;26.47;40.23
28428;BME280;15662;49.128;8.520;2023-07-24T00:07:40;99629.81;;;26.43;40.31
28428;BME280;15662;49.128;8.520;2023-07-24T00:10:09;99630.25;;;26.39;40.27
28428;BME280;15662;49.128;8.520;2023-07-24T00:12:38;99597.38;;;26.24;40.57
28428;BME280;15662;49.128;8.520;2023-07-24T00:15:07;99604.69;;;26.23;40.73
28428;BME280;15662;49.128;8.520;2023-07-24T00:17:36;99597.47;;;26.14;41.12
28428;BME280;15662;49.128;8.520;2023-07-24T00:20:06;99610.59;;;26.19;41.05
28428;BME280;15662;49.128;8.520;2023-07-24T00:22:35;99607.66;;;26.12;41.23
28428;BME280;15662;49.128;8.520;2023-07-24T00:25:04;99610.84;;;26.08;41.37
28428;BME280;15662;49.128;8.520;2023-07-24T00:27:35;99615.09;;;26.10;41.54
28428;BME280;15662;49.128;8.520;2023-07-24T00:30:07;99606.72;;;26.04;41.39
28428;BME280;15662;49.128;8.520;2023-07-24T00:32:35;99597.53;;;25.96;41.64
28428;BME280;15662;49.128;8.520;2023-07-24T00:35:05;99603.94;;;25.95;41.59
28428;BME280;15662;49.128;8.520;2023-07-24T00:37:33;99600.84;;;25.90;41.99
28428;BME280;15662;49.128;8.520;2023-07-24T00:40:03;99600.47;;;25.85;42.26
28428;BME280;15662;49.128;8.520;2023-07-24T00:42:32;99599.22;;;25.80;42.48
28428;BME280;15662;49.128;8.520;2023-07-24T00:45:02;99587.94;;;25.74;42.34
28428;BME280;15662;49.128;8.520;2023-07-24T00:47:32;99574.06;;;25.60;42.63
28428;BME280;15662;49.128;8.520;2023-07-24T00:50:01;99578.75;;;25.67;42.52
28428;BME280;15662;49.128;8.520;2023-07-24T00:52:30;99571.19;;;25.61;42.95
28428;BME280;15662;49.128;8.520;2023-07-24T00:54:59;99575.63;;;25.62;42.99
28428;BME280;15662;49.128;8.520;2023-07-24T00:57:28;99579.97;;;25.55;43.18
28428;BME280;15662;49.128;8.520;2023-07-24T00:59:58;99576.00;;;25.50;43.38
28428;BME280;15662;49.128;8.520;2023-07-24T01:02:27;99573.94;;;25.43;43.47
28428;BME280;15662;49.128;8.520;2023-07-24T01:04:57;99568.78;;;25.40;43.39
28428;BME280;15662;49.128;8.520;2023-07-24T01:07:25;99562.41;;;25.32;43.47
28428;BME280;15662;49.128;8.520;2023-07-24T01:09:54;99545.81;;;25.17;43.71
28428;BME280;15662;49.128;8.520;2023-07-24T01:15:36;99546.34;;;25.03;44.14
28428;BME280;15662;49.128;8.520;2023-07-24T01:18:11;99538.78;;;24.96;44.28
28428;BME280;15662;49.128;8.520;2023-07-24T01:20:47;99541.81;;;24.93;44.33
28428;BME280;15662;49.128;8.520;2023-07-24T01:25:59;99546.28;;;24.85;44.60
28428;BME280;15662;49.128;8.520;2023-07-24T01:28:28;99546.72;;;24.80;44.43
28428;BME280;15662;49.128;8.520;2023-07-24T01:30:57;99530.69;;;24.69;44.98
28428;BME280;15662;49.128;8.520;2023-07-24T01:33:26;99545.47;;;24.75;44.97
28428;BME280;15662;49.128;8.520;2023-07-24T01:35:58;99544.75;;;24.73;45.00
28428;BME280;15662;49.128;8.520;2023-07-24T01:38:28;99548.06;;;24.66;45.17
28428;BME280;15662;49.128;8.520;2023-07-24T01:40:57;99536.84;;;24.61;45.18
28428;BME280;15662;49.128;8.520;2023-07-24T01:43:26;99536.88;;;24.52;45.47
28428;BME280;15662;49.128;8.520;2023-07-24T01:45:55;99546.69;;;24.53;45.45
28428;BME280;15662;49.128;8.520;2023-07-24T01:48:24;99547.88;;;24.50;45.58
28428;BME280;15662;49.128;8.520;2023-07-24T01:50:54;99547.88;;;24.50;45.82
28428;BME280;15662;49.128;8.520;2023-07-24T01:53:24;99547.28;;;24.56;45.63
28428;BME280;15662;49.128;8.520;2023-07-24T01:55:52;99542.09;;;24.63;45.89
28428;BME280;15662;49.128;8.520;2023-07-24T01:58:20;99547.94;;;24.68;45.63
28428;BME280;15662;49.128;8.520;2023-07-24T02:00:50;99554.22;;;24.68;45.93
28428;BME280;15662;49.128;8.520;2023-07-24T02:03:18;99546.94;;;24.69;45.53
28428;BME280;15662;49.128;8.520;2023-07-24T02:05:50;99544.75;;;24.73;45.90
28428;BME280;15662;49.128;8.520;2023-07-24T02:08:19;99528.97;;;24.68;45.54
28428;BME280;15662;49.128;8.520;2023-07-24T02:10:51;99539.75;;;24.78;45.82
28428;BME280;15662;49.128;8.520;2023-07-24T02:13:21;99534.81;;;24.73;45.71
28428;BME280;15662;49.128;8.520;2023-07-24T02:15:50;99530.53;;;24.70;45.94
28428;BME280;15662;49.128;8.520;2023-07-24T02:18:18;99516.72;;;24.64;45.95
28428;BME280;15662;49.128;8.520;2023-07-24T02:20:50;99529.22;;;24.75;45.83
28428;BME280;15662;49.128;8.520;2023-07-24T02:23:19;99502.34;;;24.63;46.04
28428;BME280;15662;49.128;8.520;2023-07-24T02:25:51;99521.94;;;24.75;46.29
28428;BME280;15662;49.128;8.520;2023-07-24T02:28:21;99511.09;;;24.75;46.25
28428;BME280;15662;49.128;8.520;2023-07-24T02:30:50;99504.03;;;24.64;46.30
28428;BME280;15662;49.128;8.520;2023-07-24T02:33:19;99509.75;;;24.61;46.82
28428;BME280;15662;49.128;8.520;2023-07-24T02:35:51;99523.25;;;24.71;46.68
28428;BME280;15662;49.128;8.520;2023-07-24T02:38:21;99527.13;;;24.68;46.81
28428;BME280;15662;49.128;8.520;2023-07-24T02:40:49;99518.16;;;24.68;47.15
28428;BME280;15662;49.128;8.520;2023-07-24T02:43:18;99526.69;;;24.73;47.11
28428;BME280;15662;49.128;8.520;2023-07-24T02:45:47;99505.56;;;24.67;47.13
28428;BME280;15662;49.128;8.520;2023-07-24T02:48:16;99503.25;;;24.72;47.04
28428;BME280;15662;49.128;8.520;2023-07-24T02:50:48;99505.69;;;24.75;47.26
28428;BME280;15662;49.128;8.520;2023-07-24T02:53:17;99489.19;;;24.68;47.26
28428;BME280;15662;49.128;8.520;2023-07-24T02:55:46;99495.84;;;24.74;46.77
28428;BME280;15662;49.128;8.520;2023-07-24T02:58:14;99500.66;;;24.80;46.83
28428;BME280;15662;49.128;8.520;2023-07-24T03:00:44;99484.16;;;24.74;46.91
28428;BME280;15662;49.128;8.520;2023-07-24T03:03:12;99484.69;;;24.77;46.90
28428;BME280;15662;49.128;8.520;2023-07-24T03:05:41;99485.41;;;24.79;46.76
28428;BME280;15662;49.128;8.520;2023-07-24T03:12:31;99457.25;;;24.62;46.77
28428;BME280;15662;49.128;8.520;2023-07-24T03:15:01;99447.81;;;24.66;46.71
28428;BME280;15662;49.128;8.520;2023-07-24T03:17:29;99455.34;;;24.73;46.45
28428;BME280;15662;49.128;8.520;2023-07-24T03:19:58;99441.25;;;24.69;46.59
28428;BME280;15662;49.128;8.520;2023-07-24T03:22:26;99454.66;;;24.70;46.90
28428;BME280;15662;49.128;8.520;2023-07-24T03:24:56;99469.59;;;24.75;46.87
28428;BME280;15662;49.128;8.520;2023-07-24T03:27:26;99471.59;;;24.73;46.80
28428;BME280;15662;49.128;8.520;2023-07-24T03:29:55;99458.59;;;24.76;46.97
28428;BME280;15662;49.128;8.520;2023-07-24T03:32:24;99451.50;;;24.75;46.95
28428;BME280;15662;49.128;8.520;2023-07-24T03:34:56;99456.63;;;24.78;46.89
28428;BME280;15662;49.128;8.520;2023-07-24T03:37:26;99439.84;;;24.65;46.74
28428;BME280;15662;49.128;8.520;2023-07-24T03:39:55;99451.66;;;24.74;46.78
28428;BME280;15662;49.128;8.520;2023-07-24T03:42:30;99465.03;;;24.75;46.81
28428;BME280;15662;49.128;8.520;2023-07-24T03:45:07;99464.09;;;24.66;46.88
28428;BME280;15662;49.128;8.520;2023-07-24T03:47:38;99452.00;;;24.61;47.29
28428;BME280;15662;49.128;8.520;2023-07-24T03:50:10;99455.56;;;24.61;47.05
28428;BME280;15662;49.128;8.520;2023-07-24T03:52:40;99457.59;;;24.77;47.45
28428;BME280;15662;49.128;8.520;2023-07-24T03:55:10;99459.63;;;24.75;47.26
28428;BME280;15662;49.128;8.520;2023-07-24T03:57:39;99451.25;;;24.68;47.23
28428;BME280;15662;49.128;8.520;2023-07-24T04:00:11;99464.34;;;24.73;47.37
28428;BME280;15662;49.128;8.520;2023-07-24T04:02:41;99452.78;;;24.71;47.31
28428;BME280;15662;49.128;8.520;2023-07-24T04:05:10;99451.25;;;24.68;47.61
28428;BME280;15662;49.128;8.520;2023-07-24T04:07:41;99447.28;;;24.63;47.23
28428;BME280;15662;49.128;8.520;2023-07-24T04:10:12;99457.13;;;24.64;47.51
28428;BME280;15662;49.128;8.520;2023-07-24T04:12:41;99460.91;;;24.71;47.73
28428;BME280;15662;49.128;8.520;2023-07-24T04:15:09;99469.59;;;24.75;47.54
28428;BME280;15662;49.128;8.520;2023-07-24T04:17:41;99458.22;;;24.71;47.59
28428;BME280;15662;49.128;8.520;2023-07-24T04:20:10;99447.81;;;24.66;47.40
28428;BME280;15662;49.128;8.520;2023-07-24T04:22:40;99460.47;;;24.76;47.43
28428;BME280;15662;49.128;8.520;2023-07-24T04:25:11;99450.47;;;24.76;47.76
28428;BME280;15662;49.128;8.520;2023-07-24T04:27:40;99453.81;;;24.70;47.63
28428;BME280;15662;49.128;8.520;2023-07-24T04:30:11;99434.53;;;24.73;47.93
28428;BME280;15662;49.128;8.520;2023-07-24T04:32:39;99435.22;;;24.75;47.89
28428;BME280;15662;49.128;8.520;2023-07-24T04:35:10;99435.78;;;24.79;47.75
28428;BME280;15662;49.128;8.520;2023-07-24T04:37:43;99438.78;;;24.76;47.56
28428;BME280;15662;49.128;8.520;2023-07-24T04:40:14;99437.56;;;24.88;47.88
28428;BME280;15662;49.128;8.520;2023-07-24T04:42:43;99435.00;;;24.86;47.68
28428;BME280;15662;49.128;8.520;2023-07-24T04:45:12;99434.94;;;24.96;47.61
28428;BME280;15662;49.128;8.520;2023-07-24T04:47:40;99423.06;;;24.97;47.65
28428;BME280;15662;49.128;8.520;2023-07-24T04:50:10;99423.03;;;25.07;47.91
28428;BME280;15662;49.128;8.520;2023-07-24T04:52:38;99406.81;;;24.97;47.69
28428;BME280;15662;49.128;8.520;2023-07-24T04:55:07;99422.56;;;25.11;47.63
28428;BME280;15662;49.128;8.520;2023-07-24T04:57:36;99414.97;;;25.15;47.84
28428;BME280;15662;49.128;8.520;2023-07-24T05:00:06;99405.84;;;25.16;47.83
28428;BME280;15662;49.128;8.520;2023-07-24T05:02:35;99404.53;;;25.20;47.76
28428;BME280;15662;49.128;8.520;2023-07-24T05:05:03;99400.09;;;25.19;47.61
28428;BME280;15662;49.128;8.520;2023-07-24T05:07:33;99414.44;;;25.29;47.56
28428;BME280;15662;49.128;8.520;2023-07-24T05:10:01;99419.22;;;25.35;47.56
28428;BME280;15662;49.128;8.520;2023-07-24T05:12:30;99421.63;;;25.38;47.50
28428;BME280;15662;49.128;8.520;2023-07-24T05:14:59;99423.31;;;25.39;47.92
28428;BME280;15662;49.128;8.520;2023-07-24T05:17:28;99406.84;;;25.33;48.01
28428;BME280;15662;49.128;8.520;2023-07-24T05:19:57;99439.59;;;25.39;47.93
28428;BME280;15662;49.128;8.520;2023-07-24T05:22:26;99447.06;;;25.37;48.18
28428;BME280;15662;49.128;8.520;2023-07-24T05:24:55;99444.34;;;25.37;48.11
28428;BME280;15662;49.128;8.520;2023-07-24T05:27:26;99431.25;;;25.33;48.14
28428;BME280;15662;49.128;8.520;2023-07-24T05:29:55;99460.28;;;25.40;48.59
28428;BME280;15662;49.128;8.520;2023-07-24T05:32:26;99453.16;;;25.39;48.42
28428;BME280;15662;49.128;8.520;2023-07-24T05:34:55;99463.84;;;25.41;48.66
28428;BME280;15662;49.128;8.520;2023-07-24T05:37:23;99470.84;;;25.43;48.52
28428;BME280;15662;49.128;8.520;2023-07-24T05:39:54;99468.97;;;25.44;48.53
28428;BME280;15662;49.128;8.520;2023-07-24T05:42:23;99472.38;;;25.46;48.53
28428;BME280;15662;49.128;8.520;2023-07-24T05:44:52;99453.16;;;25.39;48.75
28428;BME280;15662;49.128;8.520;2023-07-24T05:47:20;99475.41;;;25.43;48.50
28428;BME280;15662;49.128;8.520;2023-07-24T05:49:48;99468.81;;;25.45;48.69
28428;BME280;15662;49.128;8.520;2023-07-24T05:52:18;99463.47;;;25.54;48.39
28428;BME280;15662;49.128;8.520;2023-07-24T05:54:47;99457.19;;;25.53;48.37
28428;BME280;15662;49.128;8.520;2023-07-24T05:57:22;99470.66;;;25.63;48.27
28428;BME280;15662;49.128;8.520;2023-07-24T05:59:50;99472.53;;;25.62;48.41
28428;BME280;15662;49.128;8.520;2023-07-24T06:02:20;99477.63;;;25.65;48.41
28428;BME280;15662;49.128;8.520;2023-07-24T06:04:49;99472.66;;;25.61;48.63
28428;BME280;15662;49.128;8.520;2023-07-24T06:07:19;99494.69;;;25.76;48.33
28428;BME280;15662;49.128;8.520;2023-07-24T06:09:49;99476.47;;;25.68;48.40
28428;BME280;15662;49.128;8.520;2023-07-24T06:12:17;99489.97;;;25.78;48.25
28428;BME280;15662;49.128;8.520;2023-07-24T06:14:46;99487.63;;;25.83;48.28
28428;BME280;15662;49.128;8.520;2023-07-24T06:17:14;99494.59;;;25.85;48.52
28428;BME280;15662;49.128;8.520;2023-07-24T06:19:42;99493.75;;;25.85;48.52
28428;BME280;15662;49.128;8.520;2023-07-24T06:22:13;99494.13;;;25.90;48.65
28428;BME280;15662;49.128;8.520;2023-07-24T06:24:43;99488.56;;;25.91;48.53
28428;BME280;15662;49.128;8.520;2023-07-24T06:27:11;99473.41;;;25.89;48.45
28428;BME280;15662;49.128;8.520;2023-07-24T06:29:42;99461.53;;;25.90;48.47
28428;BME280;15662;49.128;8.520;2023-07-24T06:32:10;99479.78;;;26.06;48.47
28428;BME280;15662;49.128;8.520;2023-07-24T06:34:39;99468.94;;;26.06;48.45
28428;BME280;15662;49.128;8.520;2023-07-24T06:37:07;99461.50;;;26.08;48.42
28428;BME280;15662;49.128;8.520;2023-07-24T06:39:49;99479.91;;;26.22;48.07
28428;BME280;15662;49.128;8.520;2023-07-24T06:42:21;99487.59;;;26.35;48.19
28428;BME280;15662;49.128;8.520;2023-07-24T06:44:50;99482.69;;;26.38;48.27
28428;BME280;15662;49.128;8.520;2023-07-24T06:47:21;99485.50;;;26.46;47.99
28428;BME280;15662;49.128;8.520;2023-07-24T06:49:51;99484.53;;;26.56;48.21
28428;BME280;15662;49.128;8.520;2023-07-24T06:52:20;99486.28;;;26.73;48.29
28428;BME280;15662;49.128;8.520;2023-07-24T06:54:50;99486.66;;;26.86;47.98
28428;BME280;15662;49.128;8.520;2023-07-24T06:57:19;99469.16;;;26.89;47.90
28428;BME280;15662;49.128;8.520;2023-07-24T06:59:47;99468.50;;;27.03;47.43
28428;BME280;15662;49.128;8.520;2023-07-24T07:02:15;99471.47;;;27.10;47.25
28428;BME280;15662;49.128;8.520;2023-07-24T07:04:46;99467.34;;;27.14;47.08
28428;BME280;15662;49.128;8.520;2023-07-24T07:07:15;99443.38;;;27.09;46.77
28428;BME280;15662;49.128;8.520;2023-07-24T07:09:44;99451.38;;;27.19;46.55
28428;BME280;15662;49.128;8.520;2023-07-24T07:12:13;99461.94;;;27.22;46.29
28428;BME280;15662;49.128;8.520;2023-07-24T07:14:48;99459.53;;;27.19;45.90
28428;BME280;15662;49.128;8.520;2023-07-24T07:17:17;99457.53;;;27.21;45.71
28428;BME280;15662;49.128;8.520;2023-07-24T07:19:47;99468.59;;;27.19;45.79
28428;BME280;15662;49.128;8.520;2023-07-24T07:22:16;99466.84;;;27.18;45.78
28428;BME280;15662;49.128;8.520;2023-07-24T07:24:50;99482.19;;;27.19;45.79
28428;BME280;15662;49.128;8.520;2023-07-24T07:27:20;99482.84;;;27.13;45.69
28428;BME280;15662;49.128;8.520;2023-07-24T07:29:49;99481.63;;;27.08;45.50
28428;BME280;15662;49.128;8.520;2023-07-24T07:32:20;99499.34;;;27.12;45.47
28428;BME280;15662;49.128;8.520;2023-07-24T07:34:51;99497.97;;;27.08;45.31
28428;BME280;15662;49.128;8.520;2023-07-24T07:37:21;99499.41;;;26.94;45.43
28428;BME280;15662;49.128;8.520;2023-07-24T07:39:51;99493.13;;;26.93;45.84
28428;BME280;15662;49.128;8.520;2023-07-24T07:42:20;99501.28;;;26.93;46.41
28428;BME280;15662;49.128;8.520;2023-07-24T07:44:49;99507.22;;;26.89;46.62
28428;BME280;15662;49.128;8.520;2023-07-24T07:47:20;99537.13;;;26.89;46.79
28428;BME280;15662;49.128;8.520;2023-07-24T07:49:50;99533.56;;;26.80;47.54
28428;BME280;15662;49.128;8.520;2023-07-24T07:52:19;99548.78;;;26.73;47.60
28428;BME280;15662;49.128;8.520;2023-07-24T07:54:50;99544.38;;;26.72;47.67
28428;BME280;15662;49.128;8.520;2023-07-24T07:57:20;99524.81;;;26.68;47.97
28428;BME280;15662;49.128;8.520;2023-07-24T07:59:48;99520.88;;;26.63;48.42
28428;BME280;15662;49.128;8.520;2023-07-24T08:02:18;99515.28;;;26.64;48.49
28428;BME280;15662;49.128;8.520;2023-07-24T08:04:48;99527.41;;;26.70;48.59
28428;BME280;15662;49.128;8.520;2023-07-24T08:07:44;99521.06;;;26.69;48.71
28428;BME280;15662;49.128;8.520;2023-07-24T08:10:21;99518.72;;;26.74;48.96
28428;BME280;15662;49.128;8.520;2023-07-24T08:12:51;99521.78;;;26.80;48.86
28428;BME280;15662;49.128;8.520;2023-07-24T08:15:20;99495.44;;;26.72;49.06
28428;BME280;15662;49.128;8.520;2023-07-24T08:17:50;99491.75;;;26.81;49.10
28428;BME280;15662;49.128;8.520;2023-07-24T08:20:19;99496.50;;;26.87;49.19
28428;BME280;15662;49.128;8.520;2023-07-24T08:22:49;99494.31;;;26.99;48.99
28428;BME280;15662;49.128;8.520;2023-07-24T08:25:18;99486.53;;;27.04;49.20
28428;BME280;15662;49.128;8.520;2023-07-24T08:27:47;99462.59;;;27.08;49.36
28428;BME280;15662;49.128;8.520;2023-07-24T08:30:33;99484.38;;;27.24;49.41
28428;BME280;15662;49.128;8.520;2023-07-24T08:33:06;99479.66;;;27.34;49.40
28428;BME280;15662;49.128;8.520;2023-07-24T08:35:36;99466.22;;;27.41;49.18
28428;BME280;15662;49.128;8.520;2023-07-24T08:38:06;99472.50;;;27.41;49.04
28428;BME280;15662;49.128;8.520;2023-07-24T08:40:35;99465.88;;;27.44;48.98
28428;BME280;15662;49.128;8.520;2023-07-24T08:43:06;99463.31;;;27.50;48.84
28428;BME280;15662;49.128;8.520;2023-07-24T08:45:38;99460.09;;;27.55;48.86
28428;BME280;15662;49.128;8.520;2023-07-24T08:48:09;99467.75;;;27.60;48.97
28428;BME280;15662;49.128;8.520;2023-07-24T08:50:39;99462.63;;;27.57;49.20
28428;BME280;15662;49.128;8.520;2023-07-24T08:53:08;99458.22;;;27.64;49.20
28428;BME280;15662;49.128;8.520;2023-07-24T08:55:37;99464.72;;;27.79;49.32
28428;BME280;15662;49.128;8.520;2023-07-24T08:58:12;99456.16;;;27.90;49.10
28428;BME280;15662;49.128;8.520;2023-07-24T09:00:48;99457.84;;;27.99;49.22
28428;BME280;15662;49.128;8.520;2023-07-24T09:03:24;99458.16;;;28.13;49.14
28428;BME280;15662;49.128;8.520;2023-07-24T09:05:53;99460.84;;;28.29;49.03
28428;BME280;15662;49.128;8.520;2023-07-24T09:08:41;99440.38;;;28.41;48.73
28428;BME280;15662;49.128;8.520;2023-07-24T09:11:17;99449.56;;;28.48;48.58
28428;BME280;15662;49.128;8.520;2023-07-24T09:13:48;99447.16;;;28.53;48.44
28428;BME280;15662;49.128;8.520;2023-07-24T09:16:24;99450.31;;;28.65;48.71
28428;BME280;15662;49.128;8.520;2023-07-24T09:19:03;99467.50;;;28.74;48.29
28428;BME280;15662;49.128;8.520;2023-07-24T09:21:55;99449.78;;;28.70;48.11
28428;BME280;15662;49.128;8.520;2023-07-24T09:24:25;99475.16;;;28.78;47.85
28428;BME280;15662;49.128;8.520;2023-07-24T09:26:55;99464.44;;;28.77;47.89
28428;BME280;15662;49.128;8.520;2023-07-24T09:29:31;99468.66;;;28.79;47.30
28428;BME280;15662;49.128;8.520;2023-07-24T09:32:06;99456.19;;;28.85;47.71
28428;BME280;15662;49.128;8.520;2023-07-24T09:34:42;99451.22;;;28.97;47.43
28428;BME280;15662;49.128;8.520;2023-07-24T09:37:11;99449.34;;;28.97;47.40
28428;BME280;15662;49.128;8.520;2023-07-24T09:39:51;99465.28;;;29.09;47.53
28428;BME280;15662;49.128;8.520;2023-07-24T09:42:34;99448.88;;;29.17;47.08
28428;BME280;15662;49.128;8.520;2023-07-24T09:45:25;99452.75;;;29.22;47.29
28428;BME280;15662;49.128;8.520;2023-07-24T09:47:57;99438.78;;;29.17;46.66
28428;BME280;15662;49.128;8.520;2023-07-24T09:50:38;99445.16;;;29.10;46.61
28428;BME280;15662;49.128;8.520;2023-07-24T09:56:07;99462.59;;;29.00;46.42
28428;BME280;15662;49.128;8.520;2023-07-24T09:58:39;99445.78;;;28.89;46.70
28428;BME280;15662;49.128;8.520;2023-07-24T10:01:11;99445.28;;;28.85;46.53
28428;BME280;15662;49.128;8.520;2023-07-24T10:03:51;99432.31;;;28.87;46.23
28428;BME280;15662;49.128;8.520;2023-07-24T10:06:29;99436.78;;;28.80;46.39
28428;BME280;15662;49.128;8.520;2023-07-24T10:09:01;99445.06;;;28.64;46.63
28428;BME280;15662;49.128;8.520;2023-07-24T10:11:39;99428.81;;;28.70;46.63
28428;BME280;15662;49.128;8.520;2023-07-24T10:14:13;99406.16;;;28.70;46.56
28428;BME280;15662;49.128;8.520;2023-07-24T10:16:47;99429.00;;;28.69;46.35
28428;BME280;15662;49.128;8.520;2023-07-24T10:19:19;99420.88;;;28.61;46.36
28428;BME280;15662;49.128;8.520;2023-07-24T10:21:48;99424.97;;;28.57;46.46
28428;BME280;15662;49.128;8.520;2023-07-24T10:24:18;99451.53;;;28.63;46.51
28428;BME280;15662;49.128;8.520;2023-07-24T10:27:09;99434.25;;;28.47;46.84
28428;BME280;15662;49.128;8.520;2023-07-24T10:29:38;99430.63;;;28.47;46.84
28428;BME280;15662;49.128;8.520;2023-07-24T10:32:28;99437.28;;;28.52;46.85
28428;BME280;15662;49.128;8.520;2023-07-24T10:35:17;99444.25;;;28.47;46.98
28428;BME280;15662;49.128;8.520;2023-07-24T10:37:59;99427.97;;;28.31;47.40
28428;BME280;15662;49.128;8.520;2023-07-24T10:40:33;99420.50;;;28.24;47.73
28428;BME280;15662;49.128;8.520;2023-07-24T10:43:19;99435.63;;;28.27;48.35
28428;BME280;15662;49.128;8.520;2023-07-24T10:46:17;99417.47;;;28.11;48.54
28428;BME280;15662;49.128;8.520;2023-07-24T10:48:51;99430.88;;;28.21;48.58
28428;BME280;15662;49.128;8.520;2023-07-24T10:51:24;99437.19;;;28.21;48.93
28428;BME280;15662;49.128;8.520;2023-07-24T10:54:07;99443.16;;;28.17;49.04
28428;BME280;15662;49.128;8.520;2023-07-24T10:56:36;99415.97;;;28.09;48.96
28428;BME280;15662;49.128;8.520;2023-07-24T10:59:07;99420.50;;;28.16;49.11
28428;BME280;15662;49.128;8.520;2023-07-24T11:01:38;99435.16;;;28.23;49.19
28428;BME280;15662;49.128;8.520;2023-07-24T11:04:09;99419.28;;;28.27;49.33
28428;BME280;15662;49.128;8.520;2023-07-24T11:06:41;99398.50;;;28.26;49.23
28428;BME280;15662;49.128;8.520;2023-07-24T11:09:10;99399.88;;;28.38;49.18
28428;BME280;15662;49.128;8.520;2023-07-24T11:11:44;99385.72;;;28.43;49.22
28428;BME280;15662;49.128;8.520;2023-07-24T11:14:15;99405.25;;;28.46;48.90
28428;BME280;15662;49.128;8.520;2023-07-24T11:16:53;99383.44;;;28.46;48.93
28428;BME280;15662;49.128;8.520;2023-07-24T11:19:26;99387.84;;;28.56;48.74
28428;BME280;15662;49.128;8.520;2023-07-24T11:21:54;99379.47;;;28.57;48.72
28428;BME280;15662;49.128;8.520;2023-07-24T11:24:23;99379.13;;;28.60;48.30
28428;BME280;15662;49.128;8.520;2023-07-24T11:26:53;99393.38;;;28.70;48.23
28428;BME280;15662;49.128;8.520;2023-07-24T11:29:27;99388.22;;;28.75;48.28
28428;BME280;15662;49.128;8.520;2023-07-24T11:32:00;99366.59;;;28.74;47.75
28428;BME280;15662;49.128;8.520;2023-07-24T11:34:29;99390.00;;;28.91;47.58
28428;BME280;15662;49.128;8.520;2023-07-24T11:37:01;99388.13;;;28.92;47.83
28428;BME280;15662;49.128;8.520;2023-07-24T11:39:30;99423.63;;;29.15;47.48
28428;BME280;15662;49.128;8.520;2023-07-24T11:41:59;99418.97;;;29.23;47.06
28428;BME280;15662;49.128;8.520;2023-07-24T11:44:29;99432.94;;;29.20;47.45
28428;BME280;15662;49.128;8.520;2023-07-24T11:47:06;99438.13;;;29.38;46.93
28428;BME280;15662;49.128;8.520;2023-07-24T11:49:35;99416.38;;;29.45;46.65
28428;BME280;15662;49.128;8.520;2023-07-24T11:52:07;99415.38;;;29.46;46.03
28428;BME280;15662;49.128;8.520;2023-07-24T11:54:38;99425.34;;;29.53;46.07
28428;BME280;15662;49.128;8.520;2023-07-24T11:57:16;99415.03;;;29.64;45.35
28428;BME280;15662;49.128;8.520;2023-07-24T11:59:45;99418.56;;;29.72;45.19
28428;BME280;15662;49.128;8.520;2023-07-24T12:02:15;99412.53;;;29.77;44.72
28428;BME280;15662;49.128;8.520;2023-07-24T12:04:46;99405.00;;;29.79;44.48
28428;BME280;15662;49.128;8.520;2023-07-24T12:07:16;99393.63;;;29.90;44.40
28428;BME280;15662;49.128;8.520;2023-07-24T12:09:51;99399.81;;;29.99;44.08
28428;BME280;15662;49.128;8.520;2023-07-24T12:12:21;99400.50;;;30.01;43.91
28428;BME280;15662;49.128;8.520;2023-07-24T12:14:52;99378.16;;;29.97;43.55
28428;BME280;15662;49.128;8.520;2023-07-24T12:17:20;99388.59;;;30.08;43.56
28428;BME280;15662;49.128;8.520;2023-07-24T12:19:53;99375.41;;;30.12;43.40
28428;BME280;15662;49.128;8.520;2023-07-24T12:22:24;99388.25;;;30.26;42.77
28428;BME280;15662;49.128;8.520;2023-07-24T12:25:02;99357.53;;;30.24;43.13
28428;BME280;15662;49.128;8.520;2023-07-24T12:27:31;99344.06;;;30.23;42.72
28428;BME280;15662;49.128;8.520;2023-07-24T12:30:01;99365.69;;;30.39;43.02
28428;BME280;15662;49.128;8.520;2023-07-24T12:32:34;99352.44;;;30.36;42.49
28428;BME280;15662;49.128;8.520;2023-07-24T12:35:04;99345.97;;;30.44;42.15
28428;BME280;15662;49.128;8.520;2023-07-24T12:37:33;99327.81;;;30.36;42.18
28428;BME280;15662;49.128;8.520;2023-07-24T12:40:06;99344.25;;;30.57;41.76
28428;BME280;15662;49.128;8.520;2023-07-24T12:42:35;99339.31;;;30.68;41.70
28428;BME280;15662;49.128;8.520;2023-07-24T12:45:08;99355.06;;;30.80;41.03
28428;BME280;15662;49.128;8.520;2023-07-24T12:47:37;99343.53;;;30.85;40.78
28428;BME280;15662;49.128;8.520;2023-07-24T12:50:06;99353.97;;;30.96;40.40
28428;BME280;15662;49.128;8.520;2023-07-24T12:52:35;99334.22;;;31.01;40.20
28428;BME280;15662;49.128;8.520;2023-07-24T12:55:04;99322.00;;;31.03;39.90
28428;BME280;15662;49.128;8.520;2023-07-24T12:57:34;99339.16;;;31.12;39.43
28428;BME280;15662;49.128;8.520;2023-07-24T13:00:02;99327.81;;;31.15;39.26
28428;BME280;15662;49.128;8.520;2023-07-24T13:02:30;99325.53;;;31.19;39.00
28428;BME280;15662;49.128;8.520;2023-07-24T13:05:00;99323.22;;;31.22;38.73
28428;BME280;15662;49.128;8.520;2023-07-24T13:07:28;99320.59;;;31.29;38.43
28428;BME280;15662;49.128;8.520;2023-07-24T13:09:57;99319.78;;;31.35;38.27
28428;BME280;15662;49.128;8.520;2023-07-24T13:12:25;99318.16;;;31.41;37.85
28428;BME280;15662;49.128;8.520;2023-07-24T13:14:53;99315.41;;;31.41;37.61
28428;BME280;15662;49.128;8.520;2023-07-24T13:17:21;99313.94;;;31.38;37.43
28428;BME280;15662;49.128;8.520;2023-07-24T13:19:49;99305.31;;;31.41;37.49
28428;BME280;15662;49.128;8.520;2023-07-24T13:22:17;99312.03;;;31.39;37.50
28428;BME280;15662;49.128;8.520;2023-07-24T13:24:45;99291.16;;;31.38;37.38
28428;BME280;15662;49.128;8.520;2023-07-24T13:27:13;99285.44;;;31.32;36.93
28428;BME280;15662;49.128;8.520;2023-07-24T13:29:40;99281.44;;;31.28;37.01
28428;BME280;15662;49.128;8.520;2023-07-24T13:32:08;99277.81;;;31.28;36.88